Time;durP1;ratioP1;P1;durP2;ratioP2;P2;SDS_P1;SDS_P2;PMS_P1;PMS_P2;Temp;Humidity;BMP_temperature;BMP_pressure;BME280_temperature;BME280_humidity;BME280_pressure;Samples;Min_cycle;Max_cycle;Signal;HPM_P1;HPM_P2
2024/04/20 00:01:33;;;;;;;8.00;6.70;;;;;;;2.66;94.00;100182.98;108687;1260;138720;-65
2024/04/20 00:04:00;;;;;;;9.30;7.00;;;;;;;2.63;93.74;100187.37;108649;1261;59975;-65
2024/04/20 00:06:28;;;;;;;7.50;6.40;;;;;;;2.61;93.78;100186.06;108551;1260;139330;-64
2024/04/20 00:08:54;;;;;;;7.80;6.00;;;;;;;2.58;93.65;100188.84;108788;1260;60120;-65
2024/04/20 00:11:25;;;;;;;9.20;6.00;;;;;;;2.55;93.34;100194.95;108682;1260;138880;-65
2024/04/20 00:13:52;;;;;;;8.80;6.70;;;;;;;2.50;93.00;100201.98;108792;1260;76546;-65
2024/04/20 00:16:19;;;;;;;10.80;6.60;;;;;;;2.42;93.29;100195.37;108803;1260;65154;-64
2024/04/20 00:18:45;;;;;;;10.70;7.20;;;;;;;2.38;93.44;100200.00;108673;1260;139070;-64
2024/04/20 00:21:12;;;;;;;15.40;7.80;;;;;;;2.37;93.48;100197.52;108765;1260;59968;-65
2024/04/20 00:23:41;;;;;;;7.50;6.20;;;;;;;2.38;93.81;100199.81;108642;1260;139376;-64
2024/04/20 00:26:08;;;;;;;11.20;6.60;;;;;;;2.38;93.77;100202.92;108798;1260;74340;-64
2024/04/20 00:28:34;;;;;;;9.30;6.50;;;;;;;2.39;93.71;100201.27;108828;1260;65958;-64
2024/04/20 00:31:02;;;;;;;10.80;6.00;;;;;;;2.42;93.69;100207.79;108619;1262;138654;-64
2024/04/20 00:33:28;;;;;;;8.50;6.50;;;;;;;2.40;93.66;100210.14;108763;1260;60673;-64
2024/04/20 00:35:55;;;;;;;9.40;5.80;;;;;;;2.40;93.71;100204.92;108667;1260;138594;-64
2024/04/20 00:38:22;;;;;;;12.70;6.00;;;;;;;2.43;93.86;100205.45;108789;1262;76185;-64
2024/04/20 00:40:58;;;;;;;9.40;6.50;;;;;;;2.44;94.02;100208.60;108787;1260;64681;-65
2024/04/20 00:43:25;;;;;;;9.30;6.00;;;;;;;2.45;94.11;100206.23;108561;1260;138578;-65
2024/04/20 00:45:52;;;;;;;7.70;6.00;;;;;;;2.45;93.93;100213.69;108690;1260;59843;-65
2024/04/20 00:48:21;;;;;;;12.00;6.00;;;;;;;2.44;93.89;100218.47;108551;1261;138858;-65
2024/04/20 00:50:49;;;;;;;11.40;5.60;;;;;;;2.42;93.88;100218.39;108703;1260;74793;-65
2024/04/20 00:53:16;;;;;;;8.70;6.50;;;;;;;2.42;94.00;100221.53;108685;1260;138989;-65
2024/04/20 00:55:42;;;;;;;8.70;6.20;;;;;;;2.44;94.15;100226.80;108701;1260;80243;-65
2024/04/20 00:58:09;;;;;;;11.10;6.30;;;;;;;2.44;93.98;100225.58;108688;1260;59739;-65
2024/04/20 01:00:40;;;;;;;7.20;5.90;;;;;;;2.42;93.78;100231.36;108610;1260;139359;-66
2024/04/20 01:03:06;;;;;;;8.80;5.30;;;;;;;2.37;93.48;100229.56;108701;1260;77241;-65
2024/04/20 01:05:33;;;;;;;8.60;5.90;;;;;;;2.33;93.43;100233.38;108657;1260;139084;-65
2024/04/20 01:07:59;;;;;;;9.90;5.70;;;;;;;2.32;93.53;100230.54;108756;1260;73760;-64
2024/04/20 01:10:26;;;;;;;8.80;5.80;;;;;;;2.32;93.49;100230.02;108693;1260;60514;-64
2024/04/20 01:13:03;;;;;;;8.70;5.10;;;;;;;2.32;93.61;100232.27;108587;1260;139389;-65
2024/04/20 01:15:31;;;;;;;7.00;5.10;;;;;;;2.33;93.80;100235.09;108779;1260;76606;-65
2024/04/20 01:17:57;;;;;;;8.60;5.30;;;;;;;2.29;94.55;100238.86;108678;1260;138997;-65
2024/04/20 01:20:24;;;;;;;7.40;5.80;;;;;;;2.23;95.63;100244.65;108792;1262;60009;-64
2024/04/20 01:22:51;;;;;;;9.70;5.40;;;;;;;2.19;96.06;100240.64;108822;1260;59729;-65
2024/04/20 01:25:18;;;;;;;7.90;5.20;;;;;;;2.22;96.42;100244.41;108680;1260;149806;-64
2024/04/20 01:27:45;;;;;;;7.80;5.20;;;;;;;2.22;95.94;100241.64;108685;1260;74032;-64
2024/04/20 01:30:16;;;;;;;6.70;5.40;;;;;;;2.20;95.29;100244.98;108641;1260;138720;-65
2024/04/20 01:32:43;;;;;;;6.10;5.10;;;;;;;2.18;95.31;100245.24;108778;1260;72888;-65
2024/04/20 01:35:09;;;;;;;7.50;5.20;;;;;;;2.18;95.26;100247.48;108807;1260;59988;-65
2024/04/20 01:37:36;;;;;;;7.70;4.60;;;;;;;2.23;95.53;100249.27;108711;1260;139339;-65
2024/04/20 01:40:03;;;;;;;5.70;4.30;;;;;;;2.21;95.09;100244.52;108797;1260;75930;-66
2024/04/20 01:42:29;;;;;;;7.00;3.90;;;;;;;2.19;95.02;100249.42;108672;1260;139094;-66
2024/04/20 01:44:56;;;;;;;6.30;4.50;;;;;;;2.18;95.08;100250.06;108794;1260;71967;-67
2024/04/20 01:47:28;;;;;;;6.50;4.30;;;;;;;2.17;95.04;100248.46;108590;1260;139303;-66
2024/04/20 01:49:55;;;;;;;7.80;4.70;;;;;;;2.18;95.10;100250.42;108814;1260;60158;-66
2024/04/20 01:52:22;;;;;;;6.80;4.70;;;;;;;2.18;95.06;100256.48;108778;1260;75897;-66
2024/04/20 01:54:48;;;;;;;9.70;5.20;;;;;;;2.22;95.24;100252.52;108696;1260;138641;-66
2024/04/20 01:57:15;;;;;;;7.30;5.00;;;;;;;2.23;95.10;100256.06;108799;1260;73141;-66
2024/04/20 01:59:41;;;;;;;13.40;5.50;;;;;;;2.26;95.36;100258.78;108677;1259;138485;-65
2024/04/20 02:02:08;;;;;;;6.90;5.10;;;;;;;2.26;95.07;100262.98;108855;1260;59855;-65
2024/04/20 02:04:34;;;;;;;6.80;5.10;;;;;;;2.29;95.33;100259.48;108290;1262;74383;-65
2024/04/20 02:07:01;;;;;;;10.30;5.50;;;;;;;2.32;95.60;100265.51;108672;1260;139216;-66
2024/04/20 02:09:28;;;;;;;7.80;5.00;;;;;;;2.33;95.35;100270.23;108738;1260;72593;-65
2024/04/20 02:11:55;;;;;;;7.20;5.20;;;;;;;2.34;95.29;100268.56;108677;1260;139252;-66
2024/04/20 02:14:21;;;;;;;9.60;5.80;;;;;;;2.36;95.29;100276.61;108762;1260;59904;-67
2024/04/20 02:16:48;;;;;;;9.90;5.80;;;;;;;2.38;95.32;100268.08;108820;1260;75910;-65
2024/04/20 02:19:14;;;;;;;11.20;5.70;;;;;;;2.46;95.38;100271.73;108652;1260;139824;-65
2024/04/20 02:21:41;;;;;;;9.30;6.80;;;;;;;2.48;95.18;100272.55;108759;1260;73880;-66
2024/04/20 02:24:07;;;;;;;9.30;6.10;;;;;;;2.48;95.25;100274.79;108671;1260;138939;-66
2024/04/20 02:26:34;;;;;;;10.00;6.50;;;;;;;2.49;94.84;100275.02;108722;1260;60295;-66
2024/04/20 02:29:00;;;;;;;10.30;6.30;;;;;;;2.50;94.91;100276.59;108841;1260;76744;-66
2024/04/20 02:31:28;;;;;;;10.70;5.70;;;;;;;2.53;94.99;100277.95;108438;1260;306109;-65
2024/04/20 02:33:54;;;;;;;8.20;6.30;;;;;;;2.57;94.85;100280.91;108779;1260;72738;-65
2024/04/20 02:36:26;;;;;;;7.90;5.90;;;;;;;2.58;94.71;100282.71;108672;1260;138647;-65
2024/04/20 02:38:53;;;;;;;8.10;5.50;;;;;;;2.59;94.51;100284.52;108781;1260;60254;-66
2024/04/20 02:41:20;;;;;;;10.50;5.00;;;;;;;2.58;94.17;100293.63;108690;1264;138716;-66
2024/04/20 02:43:47;;;;;;;11.20;5.60;;;;;;;2.51;93.76;100283.25;108803;1261;66680;-66
2024/04/20 02:46:13;;;;;;;9.60;5.30;;;;;;;2.52;93.86;100293.04;108759;1260;73647;-66
2024/04/20 02:48:40;;;;;;;12.30;5.80;;;;;;;2.54;93.54;100292.93;108663;1260;138957;-66
2024/04/20 02:51:07;;;;;;;9.70;5.50;;;;;;;2.56;93.23;100298.73;108724;1260;63622;-65
2024/04/20 02:53:33;;;;;;;8.90;6.00;;;;;;;2.57;93.03;100296.69;108696;1261;138646;-66
2024/04/20 02:55:59;;;;;;;12.80;6.10;;;;;;;2.58;92.66;100301.92;108811;1260;59936;-66
2024/04/20 02:58:26;;;;;;;11.90;5.50;;;;;;;2.57;92.50;100306.55;108778;1260;70728;-66
2024/04/20 03:00:57;;;;;;;8.60;5.50;;;;;;;2.57;92.32;100310.38;108646;1260;138674;-66
2024/04/20 03:03:24;;;;;;;10.60;5.90;;;;;;;2.58;92.12;100313.52;108804;1260;59871;-66
2024/04/20 03:05:51;;;;;;;9.60;6.10;;;;;;;2.59;91.99;100312.94;108594;1260;139405;-65
2024/04/20 03:08:17;;;;;;;11.90;6.30;;;;;;;2.61;92.09;100316.47;108814;1260;67318;-67
2024/04/20 03:10:47;;;;;;;11.30;6.50;;;;;;;2.65;92.09;100318.40;108805;1260;73340;-66
2024/04/20 03:13:14;;;;;;;10.20;6.50;;;;;;;2.70;91.94;100325.77;108553;1262;138955;-66
2024/04/20 03:15:41;;;;;;;9.70;5.70;;;;;;;2.69;91.70;100327.10;108691;1260;61369;-66
2024/04/20 03:18:08;;;;;;;12.40;5.90;;;;;;;2.66;91.50;100326.45;108633;1260;138378;-66
2024/04/20 03:20:35;;;;;;;12.90;7.10;;;;;;;2.62;91.45;100324.52;108828;1260;65200;-67
2024/04/20 03:23:02;;;;;;;11.90;6.60;;;;;;;2.61;91.44;100329.84;108818;1260;73461;-67
2024/04/20 03:25:29;;;;;;;11.40;6.00;;;;;;;2.60;91.37;100328.20;108660;1260;139961;-67
2024/04/20 03:27:55;;;;;;;8.50;5.80;;;;;;;2.59;91.23;100341.83;108796;1260;60291;-67
2024/04/20 03:30:22;;;;;;;8.90;6.30;;;;;;;2.55;90.98;100337.83;108667;1260;138600;-68
2024/04/20 03:32:48;;;;;;;11.00;6.40;;;;;;;2.51;90.92;100336.60;108778;1260;60225;-68
2024/04/20 03:35:15;;;;;;;12.30;6.40;;;;;;;2.48;90.82;100339.73;108786;1264;73106;-68
2024/04/20 03:37:43;;;;;;;10.40;5.80;;;;;;;2.47;90.85;100342.81;108785;1260;59992;-67
2024/04/20 03:40:10;;;;;;;12.00;5.40;;;;;;;2.50;91.16;100347.09;108785;1260;60908;-67
2024/04/20 03:42:36;;;;;;;9.60;5.60;;;;;;;2.49;91.13;100348.46;108603;1261;139145;-67
2024/04/20 03:45:03;;;;;;;8.00;5.70;;;;;;;2.52;91.12;100349.11;108795;1262;60159;-67
2024/04/20 03:47:30;;;;;;;8.90;5.40;;;;;;;2.57;91.24;100352.48;108708;1260;138965;-67
2024/04/20 03:49:56;;;;;;;12.40;5.40;;;;;;;2.60;91.39;100352.63;108768;1260;60373;-64
2024/04/20 03:52:23;;;;;;;10.20;5.50;;;;;;;2.64;91.33;100357.17;108781;1260;59805;-65
2024/04/20 03:54:49;;;;;;;10.20;5.00;;;;;;;2.67;91.38;100360.95;108682;1260;139175;-65
2024/04/20 03:57:16;;;;;;;10.10;5.10;;;;;;;2.66;91.19;100372.32;108802;1260;66650;-65
2024/04/20 03:59:43;;;;;;;16.20;6.20;;;;;;;2.60;91.03;100370.13;108675;1260;138703;-64
2024/04/20 04:02:09;;;;;;;9.50;5.20;;;;;;;2.58;91.35;100372.98;108720;1260;60218;-65
2024/04/20 04:04:36;;;;;;;9.90;6.10;;;;;;;2.50;92.39;100372.21;108770;1260;60331;-64
2024/04/20 04:07:03;;;;;;;8.90;5.90;;;;;;;2.43;92.83;100390.58;108680;1260;138544;-64
2024/04/20 04:09:30;;;;;;;10.10;5.30;;;;;;;2.39;92.38;100390.38;108703;1260;66372;-64
2024/04/20 04:11:56;;;;;;;11.80;5.40;;;;;;;2.35;92.92;100394.30;108674;1260;139460;-63
2024/04/20 04:14:23;;;;;;;11.60;6.10;;;;;;;2.33;93.10;100393.02;108792;1260;60116;-64
2024/04/20 04:16:49;;;;;;;11.00;5.20;;;;;;;2.37;93.37;100400.31;108763;1260;60874;-63
2024/04/20 04:19:16;;;;;;;7.90;4.80;;;;;;;2.39;93.76;100403.70;108654;1260;138932;-64
2024/04/20 04:21:43;;;;;;;9.50;4.90;;;;;;;2.37;93.54;100406.52;108801;1260;67549;-63
2024/04/20 04:24:09;;;;;;;10.60;5.20;;;;;;;2.37;93.98;100412.60;108675;1260;138891;-63
2024/04/20 04:26:36;;;;;;;10.00;4.40;;;;;;;2.38;94.22;100421.47;108763;1260;59998;-62
2024/04/20 04:29:02;;;;;;;11.30;5.10;;;;;;;2.37;94.12;100420.54;108799;1260;59701;-64
2024/04/20 04:31:29;;;;;;;12.60;4.50;;;;;;;2.29;94.03;100427.41;108668;1260;139434;-63
2024/04/20 04:33:56;;;;;;;7.30;4.60;;;;;;;2.29;94.26;100432.09;108776;1263;64979;-63
2024/04/20 04:36:22;;;;;;;7.10;4.40;;;;;;;2.30;94.71;100439.24;108678;1260;138930;-63
2024/04/20 04:38:49;;;;;;;7.20;4.60;;;;;;;2.27;94.75;100443.27;108749;1260;59702;-62
2024/04/20 04:41:15;;;;;;;7.90;5.10;;;;;;;2.24;94.67;100449.66;108791;1260;60494;-63
2024/04/20 04:43:42;;;;;;;7.80;4.30;;;;;;;2.19;94.79;100445.59;108713;1260;75522;-63
2024/04/20 04:46:09;;;;;;;6.70;4.70;;;;;;;2.19;95.19;100452.18;108736;1260;66152;-62
2024/04/20 04:48:35;;;;;;;11.10;5.20;;;;;;;2.18;95.25;100458.00;108643;1260;138547;-62
2024/04/20 04:51:02;;;;;;;6.50;4.80;;;;;;;2.17;95.23;100458.96;108777;1260;59726;-62
2024/04/20 04:53:29;;;;;;;7.30;4.50;;;;;;;2.15;95.41;100464.92;108609;1260;138530;-62
2024/04/20 04:55:55;;;;;;;7.70;4.60;;;;;;;2.13;95.43;100462.73;108680;1263;74927;-63
2024/04/20 04:58:22;;;;;;;8.50;4.90;;;;;;;2.13;95.62;100470.73;108750;1260;65122;-62
2024/04/20 05:00:48;;;;;;;7.80;4.60;;;;;;;2.11;95.79;100475.27;108617;1265;138469;-62
2024/04/20 05:03:15;;;;;;;5.70;4.20;;;;;;;2.09;95.96;100471.58;108745;1260;60028;-62
2024/04/20 05:05:50;;;;;;;8.30;4.20;;;;;;;2.11;96.21;100480.98;108690;1260;139043;-62
2024/04/20 05:08:17;;;;;;;6.00;4.10;;;;;;;2.13;96.47;100483.70;108715;1263;73977;-62
2024/04/20 05:10:43;;;;;;;6.40;4.10;;;;;;;2.14;96.61;100486.02;108781;1264;66715;-63
2024/04/20 05:13:10;;;;;;;7.60;4.60;;;;;;;2.13;96.60;100491.84;108619;1260;138779;-62
2024/04/20 05:15:37;;;;;;;9.60;5.60;;;;;;;2.13;96.48;100494.06;108779;1260;59871;-63
2024/04/20 05:18:05;;;;;;;7.50;4.80;;;;;;;2.13;96.70;100507.59;108617;1260;138620;-62
2024/04/20 05:20:34;;;;;;;9.70;5.60;;;;;;;2.10;96.41;100506.23;108771;1260;75866;-62
2024/04/20 05:23:01;;;;;;;9.60;5.80;;;;;;;2.12;96.65;100513.95;108739;1262;66248;-63
2024/04/20 05:25:28;;;;;;;7.80;5.10;;;;;;;2.17;96.93;100519.36;108628;1260;139083;-63
2024/04/20 05:27:54;;;;;;;8.30;5.00;;;;;;;2.15;96.68;100514.25;108753;1260;59998;-64
2024/04/20 05:30:21;;;;;;;8.90;4.80;;;;;;;2.11;96.47;100527.41;108431;1260;139408;-63
2024/04/20 05:32:48;;;;;;;8.40;4.40;;;;;;;2.06;96.38;100527.97;108762;1260;74963;-63
2024/04/20 05:35:14;;;;;;;10.50;4.40;;;;;;;2.06;96.49;100526.91;108808;1264;65311;-63
2024/04/20 05:37:41;;;;;;;12.50;4.10;;;;;;;2.06;96.55;100535.91;108632;1260;138927;-63
2024/04/20 05:40:08;;;;;;;7.00;4.50;;;;;;;2.06;96.74;100534.56;108699;1260;60133;-63
2024/04/20 05:42:35;;;;;;;7.90;4.50;;;;;;;2.12;96.94;100544.21;108629;1260;138922;-63
2024/04/20 05:45:01;;;;;;;10.00;4.50;;;;;;;2.13;97.13;100544.13;108779;1260;73459;-63
2024/04/20 05:47:28;;;;;;;7.20;3.80;;;;;;;2.19;97.05;100552.05;108679;1260;139448;-63
2024/04/20 05:49:55;;;;;;;9.80;4.30;;;;;;;2.18;96.91;100553.56;108770;1260;72823;-63
2024/04/20 05:52:22;;;;;;;6.10;3.90;;;;;;;2.24;96.90;100555.93;108731;1260;59789;-64
2024/04/20 05:54:49;;;;;;;5.70;3.40;;;;;;;2.34;97.13;100561.88;108675;1260;138564;-64
2024/04/20 05:57:16;;;;;;;6.70;3.70;;;;;;;2.38;96.87;100573.02;108783;1260;75694;-64
2024/04/20 05:59:43;;;;;;;5.30;3.00;;;;;;;2.44;96.82;100569.84;108707;1264;138808;-64
2024/04/20 06:02:09;;;;;;;5.10;3.30;;;;;;;2.53;96.95;100572.94;108796;1260;72101;-62
2024/04/20 06:04:36;;;;;;;5.90;3.40;;;;;;;2.64;97.12;100577.35;108784;1260;60005;-63
2024/04/20 06:07:02;;;;;;;5.00;3.70;;;;;;;2.76;97.14;100580.43;108595;1260;139066;-62
2024/04/20 06:09:29;;;;;;;5.40;3.00;;;;;;;2.88;97.12;100583.48;108727;1260;76821;-62
2024/04/20 06:11:56;;;;;;;7.40;4.10;;;;;;;2.90;96.66;100585.66;108503;1260;138554;-62
2024/04/20 06:14:22;;;;;;;6.00;3.60;;;;;;;3.05;96.83;100591.14;108790;1259;73340;-63
2024/04/20 06:16:49;;;;;;;5.90;2.90;;;;;;;3.06;95.96;100601.95;108702;1260;60198;-63
2024/04/20 06:19:16;;;;;;;7.20;3.40;;;;;;;3.01;95.17;100605.30;108700;1259;138824;-62
2024/04/20 06:21:42;;;;;;;5.30;3.00;;;;;;;3.09;95.11;100600.02;108793;1260;73894;-63
2024/04/20 06:24:09;;;;;;;7.90;2.80;;;;;;;3.27;94.77;100604.23;108686;1260;139000;-64
2024/04/20 06:26:35;;;;;;;5.40;2.80;;;;;;;3.40;94.16;100606.80;108799;1260;72438;-64
2024/04/20 06:29:02;;;;;;;5.50;3.50;;;;;;;3.61;94.03;100606.64;108656;1260;60173;-64
2024/04/20 06:31:28;;;;;;;4.00;2.90;;;;;;;3.73;93.43;100611.41;108692;1260;139115;-63
2024/04/20 06:33:55;;;;;;;4.40;2.90;;;;;;;3.73;91.82;100616.49;108776;1260;60717;-62
2024/04/20 06:36:22;;;;;;;5.50;2.80;;;;;;;3.74;90.91;100618.08;108677;1260;138708;-63
2024/04/20 06:38:51;;;;;;;4.20;2.60;;;;;;;3.80;90.54;100618.73;108831;1260;72801;-64
2024/04/20 06:41:18;;;;;;;4.10;2.70;;;;;;;3.85;89.97;100624.02;108656;1263;138156;-64
2024/04/20 06:43:44;;;;;;;3.30;2.90;;;;;;;3.86;89.62;100626.48;108646;1260;59998;-64
2024/04/20 06:46:11;;;;;;;10.60;4.50;;;;;;;3.93;89.48;100628.05;108768;1260;76719;-65
2024/04/20 06:48:39;;;;;;;17.50;7.70;;;;;;;3.96;88.20;100635.99;108622;1260;139340;-65
2024/04/20 06:51:06;;;;;;;32.10;14.70;;;;;;;3.95;87.61;100637.86;108696;1260;74546;-64
2024/04/20 06:53:32;;;;;;;14.90;9.20;;;;;;;3.98;87.02;100642.87;108729;1259;138960;-65
2024/04/20 06:56:02;;;;;;;5.40;2.80;;;;;;;3.99;86.42;100644.84;108726;1266;59937;-66
2024/04/20 06:58:28;;;;;;;16.10;8.80;;;;;;;4.01;85.83;100646.17;108788;1260;74791;-66
2024/04/20 07:00:55;;;;;;;7.10;3.90;;;;;;;4.02;85.82;100653.54;108727;1260;138703;-66
2024/04/20 07:03:22;;;;;;;3.90;2.60;;;;;;;4.04;85.34;100662.64;108801;1260;71117;-66
2024/04/20 07:05:55;;;;;;;6.00;4.30;;;;;;;4.01;84.60;100663.67;108684;1260;138372;-66
2024/04/20 07:08:22;;;;;;;7.70;3.30;;;;;;;4.04;84.30;100663.99;108764;1260;59684;-66
2024/04/20 07:10:53;;;;;;;5.80;3.60;;;;;;;4.06;84.08;100672.80;108749;1261;77191;-65
2024/04/20 07:13:20;;;;;;;3.00;2.60;;;;;;;4.05;84.02;100680.23;108669;1260;139066;-65
2024/04/20 07:15:50;;;;;;;4.30;2.70;;;;;;;3.97;83.87;100684.69;108769;1260;73768;-65
2024/04/20 07:18:17;;;;;;;10.20;9.10;;;;;;;3.89;83.70;100681.85;108601;1260;139496;-65
2024/04/20 07:20:43;;;;;;;7.90;3.70;;;;;;;3.85;83.69;100692.44;108803;1260;59889;-65
2024/04/20 07:23:10;;;;;;;9.50;4.80;;;;;;;3.90;83.39;100693.73;108808;1260;75157;-65
2024/04/20 07:25:36;;;;;;;8.70;5.00;;;;;;;4.03;83.12;100700.27;108697;1260;138550;-65
2024/04/20 07:28:03;;;;;;;8.60;6.40;;;;;;;4.21;82.46;100700.14;108744;1260;72676;-65
2024/04/20 07:30:30;;;;;;;9.80;7.00;;;;;;;4.40;81.62;100711.48;108621;1260;137909;-66
2024/04/20 07:32:56;;;;;;;12.10;7.10;;;;;;;4.49;81.14;100704.09;108852;1260;60149;-64
2024/04/20 07:35:23;;;;;;;4.60;3.00;;;;;;;4.63;80.88;100706.85;108694;1260;138740;-66
2024/04/20 07:37:50;;;;;;;7.20;2.70;;;;;;;4.72;80.60;100715.60;108643;1266;67079;-68
2024/04/20 07:40:16;;;;;;;6.10;5.10;;;;;;;4.71;80.15;100722.36;108780;1260;73671;-68
2024/04/20 07:42:43;;;;;;;6.80;4.00;;;;;;;4.73;79.99;100724.70;108641;1260;138585;-68
2024/04/20 07:45:09;;;;;;;5.50;4.40;;;;;;;4.85;80.11;100725.29;108813;1260;60262;-68
2024/04/20 07:47:36;;;;;;;15.30;10.10;;;;;;;5.13;80.21;100724.33;108555;1260;138439;-67
2024/04/20 07:50:03;;;;;;;10.80;8.20;;;;;;;5.46;79.84;100731.73;108624;1260;68115;-68
2024/04/20 07:52:29;;;;;;;5.30;3.30;;;;;;;5.77;79.74;100737.13;108601;1264;73597;-67
2024/04/20 07:54:56;;;;;;;6.80;4.30;;;;;;;6.02;78.39;100739.14;108645;1263;138576;-67
2024/04/20 07:57:22;;;;;;;5.80;4.80;;;;;;;6.11;77.38;100746.98;108759;1260;61237;-67
2024/04/20 07:59:49;;;;;;;8.90;4.40;;;;;;;6.26;77.15;100749.73;108614;1261;137935;-65
2024/04/20 08:02:16;;;;;;;8.30;4.70;;;;;;;6.37;76.20;100750.02;108791;1263;65166;-63
2024/04/20 08:04:42;;;;;;;5.30;4.00;;;;;;;6.41;74.88;100763.59;108750;1260;73518;-63
2024/04/20 08:07:09;;;;;;;6.40;3.90;;;;;;;6.33;74.26;100762.58;108671;1260;137805;-63
2024/04/20 08:09:35;;;;;;;18.50;7.60;;;;;;;6.21;74.09;100762.06;108822;1260;60024;-64
2024/04/20 08:12:02;;;;;;;9.00;4.70;;;;;;;6.20;74.41;100759.38;108691;1262;138497;-68
2024/04/20 08:14:28;;;;;;;20.80;11.10;;;;;;;6.25;74.33;100767.63;108691;1260;66218;-68
2024/04/20 08:16:55;;;;;;;7.80;3.60;;;;;;;6.27;74.27;100770.33;108709;1261;71168;-67
2024/04/20 08:19:21;;;;;;;4.40;2.50;;;;;;;6.15;73.38;100779.39;108656;1260;137850;-68
2024/04/20 08:21:48;;;;;;;4.90;2.70;;;;;;;5.99;73.19;100788.61;108724;1260;60469;-70
2024/04/20 08:24:15;;;;;;;8.70;7.30;;;;;;;5.86;73.15;100791.86;108610;1271;137785;-70
2024/04/20 08:26:41;;;;;;;7.20;5.00;;;;;;;5.80;73.18;100793.52;108665;1260;67749;-68
2024/04/20 08:29:08;;;;;;;4.00;2.60;;;;;;;5.71;72.77;100801.11;108674;1260;73269;-66
2024/04/20 08:31:34;;;;;;;3.10;2.10;;;;;;;5.51;72.30;100802.63;108623;1260;137700;-66
2024/04/20 08:34:01;;;;;;;3.80;1.90;;;;;;;5.39;72.57;100809.74;108835;1260;60153;-67
2024/04/20 08:36:27;;;;;;;5.60;2.10;;;;;;;5.35;72.76;100812.52;108673;1261;138011;-67
2024/04/20 08:38:54;;;;;;;10.90;7.00;;;;;;;5.44;73.36;100814.15;108779;1260;66608;-67
2024/04/20 08:41:23;;;;;;;7.20;3.10;;;;;;;5.56;73.57;100812.63;108663;1260;138724;-67
2024/04/20 08:43:51;;;;;;;5.90;3.20;;;;;;;5.76;73.57;100818.26;108637;1261;63492;-67
2024/04/20 08:46:18;;;;;;;4.20;2.60;;;;;;;5.96;73.21;100824.54;108800;1260;59867;-67
2024/04/20 08:48:46;;;;;;;5.40;3.80;;;;;;;5.98;72.50;100831.28;108646;1261;138081;-67
2024/04/20 08:51:13;;;;;;;5.10;2.80;;;;;;;6.10;72.45;100829.21;108724;1265;64953;-67
2024/04/20 08:53:41;;;;;;;3.20;2.20;;;;;;;6.14;71.69;100838.25;108636;1259;139462;-66
2024/04/20 08:56:08;;;;;;;3.70;2.50;;;;;;;6.18;71.23;100841.73;108712;1259;60193;-67
2024/04/20 08:58:35;;;;;;;6.20;3.20;;;;;;;6.25;70.66;100844.30;108770;1260;59717;-66
2024/04/20 09:01:01;;;;;;;3.10;2.40;;;;;;;6.28;70.16;100847.75;108660;1260;138282;-67
2024/04/20 09:03:28;;;;;;;3.70;1.80;;;;;;;6.29;69.92;100856.15;108756;1260;66696;-65
2024/04/20 09:05:55;;;;;;;3.70;1.80;;;;;;;6.15;69.33;100859.20;108647;1261;138558;-67
2024/04/20 09:08:21;;;;;;;3.60;2.40;;;;;;;5.95;68.39;100866.64;108729;1260;59820;-67
2024/04/20 09:10:48;;;;;;;2.20;2.00;;;;;;;5.83;68.30;100867.30;108748;1261;61636;-66
2024/04/20 09:13:15;;;;;;;3.60;2.20;;;;;;;5.92;69.07;100878.87;108698;1260;137820;-66
2024/04/20 09:15:47;;;;;;;2.50;2.30;;;;;;;6.03;68.98;100877.83;108813;1260;66260;-66
2024/04/20 09:18:17;;;;;;;4.50;2.60;;;;;;;6.06;68.61;100884.92;108646;1260;138023;-66
2024/04/20 09:20:45;;;;;;;3.50;2.20;;;;;;;6.10;68.71;100890.69;108779;1263;59840;-67
2024/04/20 09:23:11;;;;;;;5.60;3.00;;;;;;;6.05;68.00;100897.96;108738;1260;59842;-67
2024/04/20 09:25:38;;;;;;;7.10;2.20;;;;;;;6.02;68.23;100894.52;108618;1260;137714;-66
2024/04/20 09:28:05;;;;;;;6.50;4.00;;;;;;;6.16;68.69;100894.27;108844;1260;67678;-66
2024/04/20 09:30:32;;;;;;;7.00;3.60;;;;;;;6.25;68.09;100899.55;108549;1260;138015;-65
2024/04/20 09:32:58;;;;;;;4.90;3.30;;;;;;;6.20;67.52;100911.52;108861;1261;59735;-65
2024/04/20 09:35:26;;;;;;;5.20;2.50;;;;;;;6.09;67.41;100905.79;108706;1260;138166;-66
2024/04/20 09:37:52;;;;;;;4.70;2.90;;;;;;;6.16;67.69;100912.89;108804;1260;75533;-66
2024/04/20 09:40:19;;;;;;;3.60;2.50;;;;;;;6.25;67.04;100915.05;108826;1260;66754;-66
2024/04/20 09:42:46;;;;;;;4.10;2.40;;;;;;;6.25;66.75;100915.92;108668;1260;138400;-66
2024/04/20 09:45:13;;;;;;;3.30;2.20;;;;;;;6.39;65.68;100924.73;108806;1260;60093;-66
2024/04/20 09:47:40;;;;;;;2.30;2.00;;;;;;;6.49;65.05;100927.95;108635;1260;138583;-67
2024/04/20 09:50:10;;;;;;;2.70;2.20;;;;;;;6.64;65.50;100917.48;108753;1260;75517;-67
2024/04/20 09:52:44;;;;;;;3.40;1.80;;;;;;;6.89;64.77;100925.88;108826;1262;65204;-67
2024/04/20 09:55:16;;;;;;;;;;;;;;;6.92;63.89;100932.64;108687;1260;139097;-66
2024/04/20 09:57:42;;;;;;;4.10;1.50;;;;;;;7.01;63.81;100933.73;108723;1263;59752;-65
2024/04/20 10:00:09;;;;;;;1.90;1.60;;;;;;;6.95;63.13;100939.88;108571;1266;138426;-66
2024/04/20 10:02:36;;;;;;;2.50;1.50;;;;;;;6.83;63.23;100944.63;108733;1260;76831;-66
2024/04/20 10:05:02;;;;;;;3.00;2.00;;;;;;;6.90;63.60;100942.48;108803;1260;64569;-66
2024/04/20 10:07:29;;;;;;;2.30;1.70;;;;;;;6.94;62.40;100951.58;108691;1261;137908;-66
2024/04/20 10:10:00;;;;;;;2.30;1.70;;;;;;;6.90;61.89;100951.36;108845;1259;59930;-65
2024/04/20 10:12:28;;;;;;;5.90;1.90;;;;;;;6.84;62.05;100948.86;108641;1259;138127;-66
2024/04/20 10:14:56;;;;;;;3.90;2.30;;;;;;;6.85;61.83;100950.29;108803;1259;74280;-66
2024/04/20 10:17:25;;;;;;;4.30;2.00;;;;;;;6.88;62.03;100950.79;108633;1263;138309;-65
2024/04/20 10:19:52;;;;;;;5.00;2.80;;;;;;;6.94;61.23;100954.67;108787;1260;70845;-65
2024/04/20 10:22:19;;;;;;;3.70;2.00;;;;;;;6.97;61.37;100956.92;108784;1260;60984;-65
2024/04/20 10:24:52;;;;;;;2.40;1.80;;;;;;;7.05;61.02;100958.30;108576;1260;137871;-66
2024/04/20 10:27:32;;;;;;;4.60;1.80;;;;;;;7.10;60.50;100960.96;108810;1260;75698;-64
2024/04/20 10:30:21;;;;;;;2.30;1.60;;;;;;;7.11;60.55;100963.97;108675;1260;138692;-65
2024/04/20 10:33:11;;;;;;;5.70;2.20;;;;;;;7.22;59.58;100972.45;108708;1260;72506;-65
2024/04/20 10:35:38;;;;;;;5.10;1.90;;;;;;;7.29;59.72;100967.52;108657;1260;137993;-65
2024/04/20 10:38:07;;;;;;;5.10;1.80;;;;;;;7.39;59.49;100978.74;108766;1262;60334;-65
2024/04/20 10:40:34;;;;;;;3.70;2.90;;;;;;;7.37;58.89;100980.23;108762;1260;74710;-64
2024/04/20 10:43:18;;;;;;;5.20;2.90;;;;;;;7.33;59.05;100982.88;108661;1260;137997;-64
2024/04/20 10:45:45;;;;;;;2.80;2.20;;;;;;;7.39;59.47;100983.65;108796;1261;71879;-66
2024/04/20 10:48:15;;;;;;;5.20;2.50;;;;;;;7.52;58.94;100986.27;108586;1262;137939;-64
2024/04/20 10:50:43;;;;;;;3.50;2.30;;;;;;;7.51;58.23;100996.52;108745;1260;61128;-65
2024/04/20 10:53:17;;;;;;;8.70;4.10;;;;;;;7.45;57.67;100995.95;108787;1263;76857;-65
2024/04/20 10:55:44;;;;;;;6.80;3.50;;;;;;;7.42;57.12;101004.90;108795;1260;66267;-65
2024/04/20 10:58:10;;;;;;;5.60;3.60;;;;;;;7.36;57.65;101000.27;108699;1260;70879;-65
2024/04/20 11:00:37;;;;;;;3.50;2.00;;;;;;;7.36;57.98;101006.73;108703;1260;138401;-65
2024/04/20 11:03:04;;;;;;;9.90;6.60;;;;;;;7.30;58.03;101009.64;108798;1260;59888;-65
2024/04/20 11:05:30;;;;;;;5.00;2.60;;;;;;;7.34;58.49;101014.51;108513;1260;138740;-65
2024/04/20 11:08:00;;;;;;;5.20;3.50;;;;;;;7.36;58.29;101015.66;108778;1260;67509;-65
2024/04/20 11:10:27;;;;;;;3.60;2.40;;;;;;;7.38;58.02;101022.38;108791;1260;73172;-65
2024/04/20 11:13:02;;;;;;;3.60;2.60;;;;;;;7.39;57.06;101024.49;108508;1262;138064;-65
2024/04/20 11:15:32;;;;;;;5.30;4.00;;;;;;;7.37;56.43;101032.80;108813;1260;61671;-65
2024/04/20 11:17:58;;;;;;;3.20;2.60;;;;;;;7.60;57.25;101037.61;108634;1260;138128;-65
2024/04/20 11:20:25;;;;;;;3.70;2.00;;;;;;;7.84;57.17;101033.84;108806;1260;66405;-65